sensor_id;sensor_type;location;lat;lon;timestamp;temperature;humidity
19522;DHT22;9905;52.126;5.596;2022-12-20T00:01:20;10.80;99.90
19522;DHT22;9905;52.126;5.596;2022-12-20T00:03:48;10.80;99.90
19522;DHT22;9905;52.126;5.596;2022-12-20T00:06:15;10.80;99.90
19522;DHT22;9905;52.126;5.596;2022-12-20T00:08:44;10.80;99.90
19522;DHT22;9905;52.126;5.596;2022-12-20T00:11:11;10.90;99.90
19522;DHT22;9905;52.126;5.596;2022-12-20T00:13:38;10.90;99.90
19522;DHT22;9905;52.126;5.596;2022-12-20T00:16:07;10.80;99.90
19522;DHT22;9905;52.126;5.596;2022-12-20T00:18:37;10.90;99.90
19522;DHT22;9905;52.126;5.596;2022-12-20T00:21:05;10.90;99.90
19522;DHT22;9905;52.126;5.596;2022-12-20T00:23:33;11.00;99.90
19522;DHT22;9905;52.126;5.596;2022-12-20T00:26:02;11.00;99.90
19522;DHT22;9905;52.126;5.596;2022-12-20T00:28:29;11.00;99.90
19522;DHT22;9905;52.126;5.596;2022-12-20T00:30:55;11.00;99.90
19522;DHT22;9905;52.126;5.596;2022-12-20T00:33:22;11.00;99.90
19522;DHT22;9905;52.126;5.596;2022-12-20T00:35:50;11.00;99.90
19522;DHT22;9905;52.126;5.596;2022-12-20T00:38:17;11.00;99.90
19522;DHT22;9905;52.126;5.596;2022-12-20T00:40:44;11.00;99.90
19522;DHT22;9905;52.126;5.596;2022-12-20T00:43:11;11.10;99.90
19522;DHT22;9905;52.126;5.596;2022-12-20T00:45:38;11.10;99.90
19522;DHT22;9905;52.126;5.596;2022-12-20T00:48:05;11.20;99.90
19522;DHT22;9905;52.126;5.596;2022-12-20T00:50:32;11.20;99.90
19522;DHT22;9905;52.126;5.596;2022-12-20T00:53:00;11.20;99.90
19522;DHT22;9905;52.126;5.596;2022-12-20T00:55:26;11.20;99.90
19522;DHT22;9905;52.126;5.596;2022-12-20T00:57:53;11.20;99.90
19522;DHT22;9905;52.126;5.596;2022-12-20T01:00:20;11.20;99.90
19522;DHT22;9905;52.126;5.596;2022-12-20T01:02:47;11.20;99.90
19522;DHT22;9905;52.126;5.596;2022-12-20T01:05:13;11.20;99.90
19522;DHT22;9905;52.126;5.596;2022-12-20T01:07:40;11.20;99.90
19522;DHT22;9905;52.126;5.596;2022-12-20T01:10:10;11.20;99.90
19522;DHT22;9905;52.126;5.596;2022-12-20T01:12:36;11.20;99.90
19522;DHT22;9905;52.126;5.596;2022-12-20T01:15:04;11.20;99.90
19522;DHT22;9905;52.126;5.596;2022-12-20T01:17:31;11.20;99.90
19522;DHT22;9905;52.126;5.596;2022-12-20T01:19:58;11.20;99.90
19522;DHT22;9905;52.126;5.596;2022-12-20T01:22:25;11.20;99.90
19522;DHT22;9905;52.126;5.596;2022-12-20T01:24:52;11.20;99.90
19522;DHT22;9905;52.126;5.596;2022-12-20T01:27:20;11.20;99.90
19522;DHT22;9905;52.126;5.596;2022-12-20T01:29:47;11.20;99.90
19522;DHT22;9905;52.126;5.596;2022-12-20T01:32:13;11.10;99.90
19522;DHT22;9905;52.126;5.596;2022-12-20T01:34:40;11.10;99.90
19522;DHT22;9905;52.126;5.596;2022-12-20T01:37:07;11.10;99.90
19522;DHT22;9905;52.126;5.596;2022-12-20T01:39:33;11.00;99.90
19522;DHT22;9905;52.126;5.596;2022-12-20T01:42:01;11.00;99.90
19522;DHT22;9905;52.126;5.596;2022-12-20T01:44:57;10.80;99.90
19522;DHT22;9905;52.126;5.596;2022-12-20T01:47:25;10.80;99.90
19522;DHT22;9905;52.126;5.596;2022-12-20T01:49:54;10.70;99.90
19522;DHT22;9905;52.126;5.596;2022-12-20T01:52:26;10.70;99.90
19522;DHT22;9905;52.126;5.596;2022-12-20T01:54:56;10.60;99.90
19522;DHT22;9905;52.126;5.596;2022-12-20T01:57:33;10.50;99.90
19522;DHT22;9905;52.126;5.596;2022-12-20T02:00:04;10.50;99.90
19522;DHT22;9905;52.126;5.596;2022-12-20T02:02:33;10.40;99.90
19522;DHT22;9905;52.126;5.596;2022-12-20T02:04:59;10.30;99.90
19522;DHT22;9905;52.126;5.596;2022-12-20T02:07:29;10.30;99.90
19522;DHT22;9905;52.126;5.596;2022-12-20T02:09:57;10.30;99.90
19522;DHT22;9905;52.126;5.596;2022-12-20T02:12:26;10.20;99.90
19522;DHT22;9905;52.126;5.596;2022-12-20T02:15:23;10.20;99.90
19522;DHT22;9905;52.126;5.596;2022-12-20T02:18:00;10.20;99.90
19522;DHT22;9905;52.126;5.596;2022-12-20T02:24:02;10.10;99.90
19522;DHT22;9905;52.126;5.596;2022-12-20T02:29:39;10.10;99.90
19522;DHT22;9905;52.126;5.596;2022-12-20T02:32:15;10.10;99.90
19522;DHT22;9905;52.126;5.596;2022-12-20T02:34:43;10.10;99.90
19522;DHT22;9905;52.126;5.596;2022-12-20T02:37:09;10.10;99.90
19522;DHT22;9905;52.126;5.596;2022-12-20T02:39:39;10.10;99.90
19522;DHT22;9905;52.126;5.596;2022-12-20T02:42:07;10.00;99.90
19522;DHT22;9905;52.126;5.596;2022-12-20T02:44:38;10.00;99.90
19522;DHT22;9905;52.126;5.596;2022-12-20T02:47:29;10.00;99.90
19522;DHT22;9905;52.126;5.596;2022-12-20T02:49:59;10.00;99.90
19522;DHT22;9905;52.126;5.596;2022-12-20T02:52:28;10.00;99.90
19522;DHT22;9905;52.126;5.596;2022-12-20T02:54:56;10.00;99.90
19522;DHT22;9905;52.126;5.596;2022-12-20T02:57:28;10.00;99.90
19522;DHT22;9905;52.126;5.596;2022-12-20T03:00:02;10.00;99.90
19522;DHT22;9905;52.126;5.596;2022-12-20T03:02:32;10.00;99.90
19522;DHT22;9905;52.126;5.596;2022-12-20T03:05:22;10.00;99.90
19522;DHT22;9905;52.126;5.596;2022-12-20T03:07:49;10.10;99.90
19522;DHT22;9905;52.126;5.596;2022-12-20T03:10:17;10.10;99.90
19522;DHT22;9905;52.126;5.596;2022-12-20T03:12:44;10.10;99.90
19522;DHT22;9905;52.126;5.596;2022-12-20T03:15:11;10.10;99.90
19522;DHT22;9905;52.126;5.596;2022-12-20T03:17:39;10.00;99.90
19522;DHT22;9905;52.126;5.596;2022-12-20T03:20:07;10.00;99.90
19522;DHT22;9905;52.126;5.596;2022-12-20T03:22:35;10.10;99.90
19522;DHT22;9905;52.126;5.596;2022-12-20T03:25:03;10.00;99.90
19522;DHT22;9905;52.126;5.596;2022-12-20T03:27:29;10.00;99.90
19522;DHT22;9905;52.126;5.596;2022-12-20T03:29:56;10.00;99.90
19522;DHT22;9905;52.126;5.596;2022-12-20T03:32:23;10.00;99.90
19522;DHT22;9905;52.126;5.596;2022-12-20T03:34:51;10.00;99.90
19522;DHT22;9905;52.126;5.596;2022-12-20T03:37:18;10.00;99.90
19522;DHT22;9905;52.126;5.596;2022-12-20T03:39:44;10.00;99.90
19522;DHT22;9905;52.126;5.596;2022-12-20T03:42:11;10.00;99.90
19522;DHT22;9905;52.126;5.596;2022-12-20T03:44:38;10.00;99.90
19522;DHT22;9905;52.126;5.596;2022-12-20T03:47:05;10.00;99.90
19522;DHT22;9905;52.126;5.596;2022-12-20T03:49:31;10.00;99.90
19522;DHT22;9905;52.126;5.596;2022-12-20T03:51:59;10.00;99.90
19522;DHT22;9905;52.126;5.596;2022-12-20T03:54:26;10.00;99.90
19522;DHT22;9905;52.126;5.596;2022-12-20T03:56:53;10.10;99.90
19522;DHT22;9905;52.126;5.596;2022-12-20T03:59:20;10.10;99.90
19522;DHT22;9905;52.126;5.596;2022-12-20T04:01:46;10.10;99.90
19522;DHT22;9905;52.126;5.596;2022-12-20T04:04:14;10.10;99.90
19522;DHT22;9905;52.126;5.596;2022-12-20T04:06:41;10.20;99.90
19522;DHT22;9905;52.126;5.596;2022-12-20T04:09:09;10.30;99.90
19522;DHT22;9905;52.126;5.596;2022-12-20T04:11:36;10.30;99.90
19522;DHT22;9905;52.126;5.596;2022-12-20T04:14:04;10.30;99.90
19522;DHT22;9905;52.126;5.596;2022-12-20T04:16:31;10.30;99.90
19522;DHT22;9905;52.126;5.596;2022-12-20T04:18:57;10.40;99.90
19522;DHT22;9905;52.126;5.596;2022-12-20T04:21:26;10.40;99.90
19522;DHT22;9905;52.126;5.596;2022-12-20T04:23:53;10.50;99.90
19522;DHT22;9905;52.126;5.596;2022-12-20T04:26:21;10.50;99.90
19522;DHT22;9905;52.126;5.596;2022-12-20T04:28:48;10.60;99.90
19522;DHT22;9905;52.126;5.596;2022-12-20T04:31:15;10.60;99.90
19522;DHT22;9905;52.126;5.596;2022-12-20T04:33:42;10.70;99.90
19522;DHT22;9905;52.126;5.596;2022-12-20T04:36:09;10.70;99.90
19522;DHT22;9905;52.126;5.596;2022-12-20T04:38:35;10.70;99.90
19522;DHT22;9905;52.126;5.596;2022-12-20T04:41:02;10.80;99.90
19522;DHT22;9905;52.126;5.596;2022-12-20T04:43:30;10.80;99.90
19522;DHT22;9905;52.126;5.596;2022-12-20T04:45:57;10.90;99.90
19522;DHT22;9905;52.126;5.596;2022-12-20T04:48:26;10.90;99.90
19522;DHT22;9905;52.126;5.596;2022-12-20T04:50:54;10.90;99.90
19522;DHT22;9905;52.126;5.596;2022-12-20T04:53:21;10.90;99.90
19522;DHT22;9905;52.126;5.596;2022-12-20T04:56:07;11.00;99.90
19522;DHT22;9905;52.126;5.596;2022-12-20T04:58:35;11.10;99.90
19522;DHT22;9905;52.126;5.596;2022-12-20T05:01:02;11.10;99.90
19522;DHT22;9905;52.126;5.596;2022-12-20T05:03:28;11.10;99.90
19522;DHT22;9905;52.126;5.596;2022-12-20T05:05:55;11.10;99.90
19522;DHT22;9905;52.126;5.596;2022-12-20T05:08:22;11.10;99.90
19522;DHT22;9905;52.126;5.596;2022-12-20T05:10:49;11.10;99.90
19522;DHT22;9905;52.126;5.596;2022-12-20T05:13:15;11.00;99.90
19522;DHT22;9905;52.126;5.596;2022-12-20T05:15:43;10.90;99.90
19522;DHT22;9905;52.126;5.596;2022-12-20T05:18:10;10.80;99.90
19522;DHT22;9905;52.126;5.596;2022-12-20T05:20:37;10.80;99.90
19522;DHT22;9905;52.126;5.596;2022-12-20T05:23:04;10.80;99.90
19522;DHT22;9905;52.126;5.596;2022-12-20T05:25:49;10.80;99.90
19522;DHT22;9905;52.126;5.596;2022-12-20T05:28:34;10.80;99.90
19522;DHT22;9905;52.126;5.596;2022-12-20T05:31:02;10.80;99.90
19522;DHT22;9905;52.126;5.596;2022-12-20T05:33:29;10.80;99.90
19522;DHT22;9905;52.126;5.596;2022-12-20T05:35:56;10.80;99.90
19522;DHT22;9905;52.126;5.596;2022-12-20T05:38:23;10.80;99.90
19522;DHT22;9905;52.126;5.596;2022-12-20T05:40:50;10.80;99.90
19522;DHT22;9905;52.126;5.596;2022-12-20T05:43:18;10.80;99.90
19522;DHT22;9905;52.126;5.596;2022-12-20T05:45:46;10.80;99.90
19522;DHT22;9905;52.126;5.596;2022-12-20T05:48:15;10.80;99.90
19522;DHT22;9905;52.126;5.596;2022-12-20T05:50:42;10.80;99.90
19522;DHT22;9905;52.126;5.596;2022-12-20T05:53:10;10.90;99.90
19522;DHT22;9905;52.126;5.596;2022-12-20T05:55:36;10.80;99.90
19522;DHT22;9905;52.126;5.596;2022-12-20T05:58:05;10.80;99.90
19522;DHT22;9905;52.126;5.596;2022-12-20T06:00:32;10.80;99.90
19522;DHT22;9905;52.126;5.596;2022-12-20T06:02:59;10.70;99.90
19522;DHT22;9905;52.126;5.596;2022-12-20T06:05:27;10.70;99.90
19522;DHT22;9905;52.126;5.596;2022-12-20T06:07:54;10.70;99.90
19522;DHT22;9905;52.126;5.596;2022-12-20T06:10:21;10.70;99.90
19522;DHT22;9905;52.126;5.596;2022-12-20T06:12:47;10.60;99.90
19522;DHT22;9905;52.126;5.596;2022-12-20T06:15:14;10.60;99.90
19522;DHT22;9905;52.126;5.596;2022-12-20T06:17:41;10.70;99.90
19522;DHT22;9905;52.126;5.596;2022-12-20T06:20:08;10.70;99.90
19522;DHT22;9905;52.126;5.596;2022-12-20T06:22:38;10.70;99.90
19522;DHT22;9905;52.126;5.596;2022-12-20T06:25:05;10.70;99.90
19522;DHT22;9905;52.126;5.596;2022-12-20T06:27:34;10.80;99.90
19522;DHT22;9905;52.126;5.596;2022-12-20T06:30:00;10.80;99.90
19522;DHT22;9905;52.126;5.596;2022-12-20T06:32:27;10.80;99.90
19522;DHT22;9905;52.126;5.596;2022-12-20T06:34:54;10.90;99.90
19522;DHT22;9905;52.126;5.596;2022-12-20T06:37:21;10.90;99.90
19522;DHT22;9905;52.126;5.596;2022-12-20T06:39:49;10.90;99.90
19522;DHT22;9905;52.126;5.596;2022-12-20T06:42:16;10.90;99.90
19522;DHT22;9905;52.126;5.596;2022-12-20T06:44:43;10.90;99.90
19522;DHT22;9905;52.126;5.596;2022-12-20T06:47:10;10.90;99.90
19522;DHT22;9905;52.126;5.596;2022-12-20T06:49:37;10.90;99.90
19522;DHT22;9905;52.126;5.596;2022-12-20T06:52:04;10.90;99.90
19522;DHT22;9905;52.126;5.596;2022-12-20T06:54:31;10.90;99.90
19522;DHT22;9905;52.126;5.596;2022-12-20T06:56:59;10.90;99.90
19522;DHT22;9905;52.126;5.596;2022-12-20T06:59:26;11.00;99.90
19522;DHT22;9905;52.126;5.596;2022-12-20T07:01:53;11.00;99.90
19522;DHT22;9905;52.126;5.596;2022-12-20T07:04:19;11.00;99.90
19522;DHT22;9905;52.126;5.596;2022-12-20T07:06:46;11.00;99.90
19522;DHT22;9905;52.126;5.596;2022-12-20T07:09:13;11.00;99.90
19522;DHT22;9905;52.126;5.596;2022-12-20T07:11:40;11.00;99.90
19522;DHT22;9905;52.126;5.596;2022-12-20T07:14:09;11.00;99.90
19522;DHT22;9905;52.126;5.596;2022-12-20T07:16:36;11.10;99.90
19522;DHT22;9905;52.126;5.596;2022-12-20T07:19:06;11.10;99.90
19522;DHT22;9905;52.126;5.596;2022-12-20T07:21:32;11.20;99.90
19522;DHT22;9905;52.126;5.596;2022-12-20T07:24:00;11.20;99.90
19522;DHT22;9905;52.126;5.596;2022-12-20T07:26:26;11.30;99.90
19522;DHT22;9905;52.126;5.596;2022-12-20T07:28:53;11.30;99.90
19522;DHT22;9905;52.126;5.596;2022-12-20T07:31:22;11.30;99.90
19522;DHT22;9905;52.126;5.596;2022-12-20T07:33:49;11.30;99.90
19522;DHT22;9905;52.126;5.596;2022-12-20T07:36:16;11.30;99.90
19522;DHT22;9905;52.126;5.596;2022-12-20T07:38:42;11.30;99.90
19522;DHT22;9905;52.126;5.596;2022-12-20T07:41:11;11.30;99.90
19522;DHT22;9905;52.126;5.596;2022-12-20T07:43:39;11.30;99.90
19522;DHT22;9905;52.126;5.596;2022-12-20T07:46:07;11.40;99.90
19522;DHT22;9905;52.126;5.596;2022-12-20T07:48:35;11.40;99.90
19522;DHT22;9905;52.126;5.596;2022-12-20T07:51:05;11.30;99.90
19522;DHT22;9905;52.126;5.596;2022-12-20T07:53:34;11.40;99.90
19522;DHT22;9905;52.126;5.596;2022-12-20T07:56:05;11.40;99.90
19522;DHT22;9905;52.126;5.596;2022-12-20T07:58:34;11.30;99.90
19522;DHT22;9905;52.126;5.596;2022-12-20T08:01:02;11.30;99.90
19522;DHT22;9905;52.126;5.596;2022-12-20T08:03:31;11.40;99.90
19522;DHT22;9905;52.126;5.596;2022-12-20T08:06:02;11.40;99.90
19522;DHT22;9905;52.126;5.596;2022-12-20T08:08:34;11.40;99.90
19522;DHT22;9905;52.126;5.596;2022-12-20T08:11:02;11.40;99.90
19522;DHT22;9905;52.126;5.596;2022-12-20T08:13:31;11.40;99.90
19522;DHT22;9905;52.126;5.596;2022-12-20T08:15:58;11.50;99.90
19522;DHT22;9905;52.126;5.596;2022-12-20T08:18:25;11.50;99.90
19522;DHT22;9905;52.126;5.596;2022-12-20T08:20:52;11.50;99.90
19522;DHT22;9905;52.126;5.596;2022-12-20T08:23:21;11.40;99.90
19522;DHT22;9905;52.126;5.596;2022-12-20T08:25:47;11.50;99.90
19522;DHT22;9905;52.126;5.596;2022-12-20T08:28:14;11.40;99.90
19522;DHT22;9905;52.126;5.596;2022-12-20T08:30:41;11.40;99.90
19522;DHT22;9905;52.126;5.596;2022-12-20T08:33:08;11.50;99.90
19522;DHT22;9905;52.126;5.596;2022-12-20T08:35:35;11.50;99.90
19522;DHT22;9905;52.126;5.596;2022-12-20T08:38:02;11.40;99.90
19522;DHT22;9905;52.126;5.596;2022-12-20T08:40:31;11.40;99.90
19522;DHT22;9905;52.126;5.596;2022-12-20T08:42:58;11.40;99.90
19522;DHT22;9905;52.126;5.596;2022-12-20T08:45:25;11.40;99.90
19522;DHT22;9905;52.126;5.596;2022-12-20T08:47:53;11.40;99.90
19522;DHT22;9905;52.126;5.596;2022-12-20T08:50:20;11.40;99.90
19522;DHT22;9905;52.126;5.596;2022-12-20T08:52:47;11.40;99.90
19522;DHT22;9905;52.126;5.596;2022-12-20T08:55:13;11.40;99.90
19522;DHT22;9905;52.126;5.596;2022-12-20T08:57:42;11.40;99.90
19522;DHT22;9905;52.126;5.596;2022-12-20T09:00:10;11.40;99.90
19522;DHT22;9905;52.126;5.596;2022-12-20T09:02:37;11.40;99.90
19522;DHT22;9905;52.126;5.596;2022-12-20T09:05:06;11.40;99.90
19522;DHT22;9905;52.126;5.596;2022-12-20T09:07:33;11.40;99.90
19522;DHT22;9905;52.126;5.596;2022-12-20T09:09:59;11.20;99.90
19522;DHT22;9905;52.126;5.596;2022-12-20T09:12:26;11.20;99.90
19522;DHT22;9905;52.126;5.596;2022-12-20T09:14:55;11.10;99.90
19522;DHT22;9905;52.126;5.596;2022-12-20T09:17:22;11.00;99.90
19522;DHT22;9905;52.126;5.596;2022-12-20T09:19:49;11.00;99.90
19522;DHT22;9905;52.126;5.596;2022-12-20T09:22:15;10.90;99.90
19522;DHT22;9905;52.126;5.596;2022-12-20T09:24:42;10.90;99.90
19522;DHT22;9905;52.126;5.596;2022-12-20T09:27:09;10.90;99.90
19522;DHT22;9905;52.126;5.596;2022-12-20T09:29:36;10.80;99.90
19522;DHT22;9905;52.126;5.596;2022-12-20T09:32:05;10.80;99.90
19522;DHT22;9905;52.126;5.596;2022-12-20T09:34:32;10.80;99.90
19522;DHT22;9905;52.126;5.596;2022-12-20T09:36:59;10.70;99.90
19522;DHT22;9905;52.126;5.596;2022-12-20T09:39:26;10.70;99.90
19522;DHT22;9905;52.126;5.596;2022-12-20T09:41:53;10.70;99.90
19522;DHT22;9905;52.126;5.596;2022-12-20T09:44:25;10.60;99.90
19522;DHT22;9905;52.126;5.596;2022-12-20T09:46:54;10.60;99.90
19522;DHT22;9905;52.126;5.596;2022-12-20T09:49:28;10.60;99.90
19522;DHT22;9905;52.126;5.596;2022-12-20T09:54:56;10.50;99.90
19522;DHT22;9905;52.126;5.596;2022-12-20T09:57:32;10.50;99.90
19522;DHT22;9905;52.126;5.596;2022-12-20T10:00:11;10.50;99.90
19522;DHT22;9905;52.126;5.596;2022-12-20T10:02:38;10.50;99.90
19522;DHT22;9905;52.126;5.596;2022-12-20T10:05:12;10.50;99.90
19522;DHT22;9905;52.126;5.596;2022-12-20T10:07:47;10.50;99.90
19522;DHT22;9905;52.126;5.596;2022-12-20T10:10:38;10.50;99.90
19522;DHT22;9905;52.126;5.596;2022-12-20T10:13:19;10.50;99.90
19522;DHT22;9905;52.126;5.596;2022-12-20T10:15:51;10.40;99.90
19522;DHT22;9905;52.126;5.596;2022-12-20T10:18:31;10.50;99.90
19522;DHT22;9905;52.126;5.596;2022-12-20T10:21:07;10.40;99.90
19522;DHT22;9905;52.126;5.596;2022-12-20T10:23:39;10.50;99.90
19522;DHT22;9905;52.126;5.596;2022-12-20T10:26:11;10.40;99.90
19522;DHT22;9905;52.126;5.596;2022-12-20T10:28:38;10.50;99.90
19522;DHT22;9905;52.126;5.596;2022-12-20T10:31:10;10.40;99.90
19522;DHT22;9905;52.126;5.596;2022-12-20T10:33:39;10.40;99.90
19522;DHT22;9905;52.126;5.596;2022-12-20T10:36:24;10.40;99.90
19522;DHT22;9905;52.126;5.596;2022-12-20T10:38:52;10.40;99.90
19522;DHT22;9905;52.126;5.596;2022-12-20T10:41:21;10.40;99.90
19522;DHT22;9905;52.126;5.596;2022-12-20T10:43:53;10.40;99.90
19522;DHT22;9905;52.126;5.596;2022-12-20T10:46:22;10.40;99.90
19522;DHT22;9905;52.126;5.596;2022-12-20T10:48:49;10.40;99.90
19522;DHT22;9905;52.126;5.596;2022-12-20T10:51:18;10.40;99.90
19522;DHT22;9905;52.126;5.596;2022-12-20T10:53:52;10.40;99.90
19522;DHT22;9905;52.126;5.596;2022-12-20T10:56:21;10.40;99.90
19522;DHT22;9905;52.126;5.596;2022-12-20T10:58:53;10.40;99.90
19522;DHT22;9905;52.126;5.596;2022-12-20T11:01:22;10.40;99.90
19522;DHT22;9905;52.126;5.596;2022-12-20T11:03:53;10.40;99.90
19522;DHT22;9905;52.126;5.596;2022-12-20T11:06:21;10.40;99.90
19522;DHT22;9905;52.126;5.596;2022-12-20T11:08:50;10.40;99.90
19522;DHT22;9905;52.126;5.596;2022-12-20T11:11:18;10.40;99.90
19522;DHT22;9905;52.126;5.596;2022-12-20T11:13:48;10.40;99.90
19522;DHT22;9905;52.126;5.596;2022-12-20T11:16:34;10.40;99.90
19522;DHT22;9905;52.126;5.596;2022-12-20T11:19:24;10.40;99.90
19522;DHT22;9905;52.126;5.596;2022-12-20T11:22:00;10.40;99.90
19522;DHT22;9905;52.126;5.596;2022-12-20T11:24:34;10.50;99.90
19522;DHT22;9905;52.126;5.596;2022-12-20T11:27:15;10.40;99.90
19522;DHT22;9905;52.126;5.596;2022-12-20T11:30:02;10.50;99.90
19522;DHT22;9905;52.126;5.596;2022-12-20T11:32:41;10.50;99.90
19522;DHT22;9905;52.126;5.596;2022-12-20T11:35:13;10.50;99.90
19522;DHT22;9905;52.126;5.596;2022-12-20T11:37:50;10.50;99.90
19522;DHT22;9905;52.126;5.596;2022-12-20T11:40:28;10.50;99.90
19522;DHT22;9905;52.126;5.596;2022-12-20T11:43:09;10.50;99.90
19522;DHT22;9905;52.126;5.596;2022-12-20T11:45:44;10.50;99.90
19522;DHT22;9905;52.126;5.596;2022-12-20T11:48:28;10.50;99.90
19522;DHT22;9905;52.126;5.596;2022-12-20T11:51:02;10.50;99.90
19522;DHT22;9905;52.126;5.596;2022-12-20T11:53:34;10.50;99.90
19522;DHT22;9905;52.126;5.596;2022-12-20T11:56:08;10.50;99.90
19522;DHT22;9905;52.126;5.596;2022-12-20T11:58:49;10.60;99.90
19522;DHT22;9905;52.126;5.596;2022-12-20T12:01:20;10.60;99.90
19522;DHT22;9905;52.126;5.596;2022-12-20T12:03:58;10.60;99.90
19522;DHT22;9905;52.126;5.596;2022-12-20T12:06:29;10.60;99.90
19522;DHT22;9905;52.126;5.596;2022-12-20T12:09:06;10.60;99.90
19522;DHT22;9905;52.126;5.596;2022-12-20T12:11:39;10.60;99.90
19522;DHT22;9905;52.126;5.596;2022-12-20T12:14:15;10.60;99.90
19522;DHT22;9905;52.126;5.596;2022-12-20T12:16:47;10.60;99.90
19522;DHT22;9905;52.126;5.596;2022-12-20T12:19:16;10.60;99.90
19522;DHT22;9905;52.126;5.596;2022-12-20T12:21:48;10.60;99.90
19522;DHT22;9905;52.126;5.596;2022-12-20T12:24:20;10.60;99.90
19522;DHT22;9905;52.126;5.596;2022-12-20T12:26:51;10.60;99.90
19522;DHT22;9905;52.126;5.596;2022-12-20T12:29:19;10.70;99.90
19522;DHT22;9905;52.126;5.596;2022-12-20T12:31:49;10.60;99.90
19522;DHT22;9905;52.126;5.596;2022-12-20T12:34:28;10.70;99.90
19522;DHT22;9905;52.126;5.596;2022-12-20T12:40:09;10.70;99.90
19522;DHT22;9905;52.126;5.596;2022-12-20T12:45:48;10.70;99.90
19522;DHT22;9905;52.126;5.596;2022-12-20T12:48:19;10.70;99.90
19522;DHT22;9905;52.126;5.596;2022-12-20T12:50:50;10.70;99.90
19522;DHT22;9905;52.126;5.596;2022-12-20T12:53:20;10.70;99.90
19522;DHT22;9905;52.126;5.596;2022-12-20T12:55:48;10.70;99.90
19522;DHT22;9905;52.126;5.596;2022-12-20T12:58:38;10.70;99.90
19522;DHT22;9905;52.126;5.596;2022-12-20T13:01:08;10.70;99.90
19522;DHT22;9905;52.126;5.596;2022-12-20T13:03:43;10.70;99.90
19522;DHT22;9905;52.126;5.596;2022-12-20T13:09:40;10.70;99.90
19522;DHT22;9905;52.126;5.596;2022-12-20T13:12:47;10.70;99.90
19522;DHT22;9905;52.126;5.596;2022-12-20T13:15:50;10.70;99.90
19522;DHT22;9905;52.126;5.596;2022-12-20T13:18:25;10.70;99.90
19522;DHT22;9905;52.126;5.596;2022-12-20T13:21:15;10.70;99.90
19522;DHT22;9905;52.126;5.596;2022-12-20T13:23:42;10.70;99.90
19522;DHT22;9905;52.126;5.596;2022-12-20T13:26:41;10.70;99.90
19522;DHT22;9905;52.126;5.596;2022-12-20T13:29:22;10.70;99.90
19522;DHT22;9905;52.126;5.596;2022-12-20T13:31:51;10.70;99.90
19522;DHT22;9905;52.126;5.596;2022-12-20T13:34:38;10.70;99.90
19522;DHT22;9905;52.126;5.596;2022-12-20T13:37:27;10.70;99.90
19522;DHT22;9905;52.126;5.596;2022-12-20T13:39:54;10.70;99.90
19522;DHT22;9905;52.126;5.596;2022-12-20T13:42:36;10.80;99.90
19522;DHT22;9905;52.126;5.596;2022-12-20T13:45:08;10.80;99.90
19522;DHT22;9905;52.126;5.596;2022-12-20T13:47:44;10.80;99.90
19522;DHT22;9905;52.126;5.596;2022-12-20T13:50:39;10.80;99.90
19522;DHT22;9905;52.126;5.596;2022-12-20T13:53:15;10.70;99.90
19522;DHT22;9905;52.126;5.596;2022-12-20T13:55:43;10.70;99.90
19522;DHT22;9905;52.126;5.596;2022-12-20T13:58:13;10.70;99.90
19522;DHT22;9905;52.126;5.596;2022-12-20T14:00:42;10.70;99.90
19522;DHT22;9905;52.126;5.596;2022-12-20T14:03:22;10.70;99.90
19522;DHT22;9905;52.126;5.596;2022-12-20T14:05:55;10.70;99.90
19522;DHT22;9905;52.126;5.596;2022-12-20T14:08:26;10.70;99.90
19522;DHT22;9905;52.126;5.596;2022-12-20T14:10:53;10.70;99.90
19522;DHT22;9905;52.126;5.596;2022-12-20T14:13:22;10.70;99.90
19522;DHT22;9905;52.126;5.596;2022-12-20T14:15:50;10.70;99.90
19522;DHT22;9905;52.126;5.596;2022-12-20T14:18:20;10.70;99.90
19522;DHT22;9905;52.126;5.596;2022-12-20T14:20:50;10.70;99.90
19522;DHT22;9905;52.126;5.596;2022-12-20T14:23:19;10.70;99.90
19522;DHT22;9905;52.126;5.596;2022-12-20T14:25:49;10.70;99.90
19522;DHT22;9905;52.126;5.596;2022-12-20T14:28:24;10.70;99.90
19522;DHT22;9905;52.126;5.596;2022-12-20T14:30:52;10.70;99.90
19522;DHT22;9905;52.126;5.596;2022-12-20T14:33:27;10.70;99.90
19522;DHT22;9905;52.126;5.596;2022-12-20T14:35:55;10.70;99.90
19522;DHT22;9905;52.126;5.596;2022-12-20T14:38:28;10.70;99.90
19522;DHT22;9905;52.126;5.596;2022-12-20T14:40:56;10.70;99.90
19522;DHT22;9905;52.126;5.596;2022-12-20T14:43:26;10.80;99.90
19522;DHT22;9905;52.126;5.596;2022-12-20T14:46:16;10.70;99.90
19522;DHT22;9905;52.126;5.596;2022-12-20T14:48:45;10.70;99.90
19522;DHT22;9905;52.126;5.596;2022-12-20T14:51:13;10.70;99.90
19522;DHT22;9905;52.126;5.596;2022-12-20T14:53:45;10.70;99.90
19522;DHT22;9905;52.126;5.596;2022-12-20T14:56:16;10.70;99.90
19522;DHT22;9905;52.126;5.596;2022-12-20T14:58:43;10.70;99.90
19522;DHT22;9905;52.126;5.596;2022-12-20T15:01:18;10.70;99.90
19522;DHT22;9905;52.126;5.596;2022-12-20T15:03:51;10.60;99.90
19522;DHT22;9905;52.126;5.596;2022-12-20T15:06:31;10.60;99.90
19522;DHT22;9905;52.126;5.596;2022-12-20T15:08:58;10.70;99.90
19522;DHT22;9905;52.126;5.596;2022-12-20T15:11:25;10.60;99.90
19522;DHT22;9905;52.126;5.596;2022-12-20T15:13:53;10.70;99.90
19522;DHT22;9905;52.126;5.596;2022-12-20T15:16:21;10.70;99.90
19522;DHT22;9905;52.126;5.596;2022-12-20T15:18:51;10.70;99.90
19522;DHT22;9905;52.126;5.596;2022-12-20T15:21:27;10.60;99.90
19522;DHT22;9905;52.126;5.596;2022-12-20T15:23:55;10.60;99.90
19522;DHT22;9905;52.126;5.596;2022-12-20T15:26:24;10.60;99.90
19522;DHT22;9905;52.126;5.596;2022-12-20T15:28:51;10.60;99.90
19522;DHT22;9905;52.126;5.596;2022-12-20T15:31:19;10.60;99.90
19522;DHT22;9905;52.126;5.596;2022-12-20T15:33:49;10.60;99.90
19522;DHT22;9905;52.126;5.596;2022-12-20T15:36:18;10.60;99.90
19522;DHT22;9905;52.126;5.596;2022-12-20T15:38:46;10.60;99.90
19522;DHT22;9905;52.126;5.596;2022-12-20T15:41:18;10.60;99.90
19522;DHT22;9905;52.126;5.596;2022-12-20T15:43:45;10.60;99.90
19522;DHT22;9905;52.126;5.596;2022-12-20T15:46:12;10.60;99.90
19522;DHT22;9905;52.126;5.596;2022-12-20T15:48:39;10.60;99.90
19522;DHT22;9905;52.126;5.596;2022-12-20T15:51:13;10.50;99.90
19522;DHT22;9905;52.126;5.596;2022-12-20T15:53:42;10.60;99.90
19522;DHT22;9905;52.126;5.596;2022-12-20T15:56:16;10.50;99.90
19522;DHT22;9905;52.126;5.596;2022-12-20T15:58:44;10.60;99.90
19522;DHT22;9905;52.126;5.596;2022-12-20T16:01:13;10.60;99.90
19522;DHT22;9905;52.126;5.596;2022-12-20T16:03:41;10.50;99.90
19522;DHT22;9905;52.126;5.596;2022-12-20T16:06:09;10.50;99.90
19522;DHT22;9905;52.126;5.596;2022-12-20T16:08:37;10.60;99.90
19522;DHT22;9905;52.126;5.596;2022-12-20T16:11:06;10.60;99.90
19522;DHT22;9905;52.126;5.596;2022-12-20T16:13:37;10.50;99.90
19522;DHT22;9905;52.126;5.596;2022-12-20T16:16:04;10.50;99.90
19522;DHT22;9905;52.126;5.596;2022-12-20T16:18:31;10.60;99.90
19522;DHT22;9905;52.126;5.596;2022-12-20T16:20:58;10.50;99.90
19522;DHT22;9905;52.126;5.596;2022-12-20T16:23:25;10.50;99.90